Time;durP1;ratioP1;P1;durP2;ratioP2;P2;SDS_P1;SDS_P2;PMS_P1;PMS_P2;Temp;Humidity;BMP_temperature;BMP_pressure;BME280_temperature;BME280_humidity;BME280_pressure;Samples;Min_cycle;Max_cycle;Signal;HPM_P1;HPM_P2
2021/05/04 00:01:19;;;;;;;;;;;22.20;65.20;;;;;;5104045;28;19931;-51
2021/05/04 00:03:45;;;;;;;;;;;22.20;65.20;;;;;;5103819;28;19912;-53
2021/05/04 00:06:10;;;;;;;;;;;22.20;65.10;;;;;;5103869;28;19943;-52
2021/05/04 00:08:36;;;;;;;;;;;22.20;65.20;;;;;;5103595;28;19967;-52
2021/05/04 00:11:03;;;;;;;;;;;22.20;65.20;;;;;;5103364;28;19935;-52
2021/05/04 00:13:29;;;;;;;;;;;22.20;65.20;;;;;;5099406;28;19916;-52
2021/05/04 00:15:55;;;;;;;;;;;22.20;65.20;;;;;;5103481;28;19934;-51
2021/05/04 00:18:20;;;;;;;;;;;22.20;65.20;;;;;;5103218;28;19974;-53
2021/05/04 00:20:46;;;;;;;;;;;22.20;65.20;;;;;;5103390;28;19915;-52
2021/05/04 00:23:12;;;;;;;;;;;22.20;65.20;;;;;;5103260;28;19918;-53
2021/05/04 00:25:38;;;;;;;;;;;22.20;65.20;;;;;;5103765;28;19911;-53
2021/05/04 00:28:04;;;;;;;;;;;22.20;65.20;;;;;;5102838;28;19908;-50
2021/05/04 00:30:30;;;;;;;;;;;22.20;65.20;;;;;;5103002;28;19915;-54
2021/05/04 00:32:56;;;;;;;;;;;22.20;65.20;;;;;;5102800;28;20229;-54
2021/05/04 00:35:22;;;;;;;;;;;22.20;65.10;;;;;;5103088;28;19981;-51
2021/05/04 00:37:48;;;;;;;;;;;22.20;65.30;;;;;;5103004;28;19904;-50
2021/05/04 00:40:14;;;;;;;;;;;22.20;65.10;;;;;;5103099;28;20272;-53
2021/05/04 00:42:40;;;;;;;;;;;22.20;65.20;;;;;;5102711;28;19919;-56
2021/05/04 00:45:06;;;;;;;;;;;22.20;65.20;;;;;;5102919;28;19938;-54
2021/05/04 00:47:32;;;;;;;;;;;22.20;65.30;;;;;;5103182;28;19914;-55
2021/05/04 00:49:58;;;;;;;;;;;22.20;65.30;;;;;;5102624;28;19943;-52
2021/05/04 00:52:24;;;;;;;;;;;22.20;65.40;;;;;;5102551;28;20477;-52
2021/05/04 00:54:49;;;;;;;;;;;22.20;65.30;;;;;;5084363;28;19915;-54
2021/05/04 00:57:15;;;;;;;;;;;22.20;65.20;;;;;;5102474;28;19958;-54
2021/05/04 00:59:41;;;;;;;;;;;22.20;65.30;;;;;;5102036;28;19934;-51
2021/05/04 01:02:07;;;;;;;;;;;22.20;65.10;;;;;;5102690;28;20124;-53
2021/05/04 01:04:33;;;;;;;;;;;22.20;65.00;;;;;;5102523;28;19929;-53
2021/05/04 01:07:00;;;;;;;;;;;22.10;65.00;;;;;;5084226;28;19908;-55
2021/05/04 01:09:26;;;;;;;;;;;22.10;65.10;;;;;;5102379;28;19908;-54
2021/05/04 01:11:53;;;;;;;;;;;22.10;65.10;;;;;;5093109;28;19920;-51
2021/05/04 01:14:20;;;;;;;;;;;22.10;65.10;;;;;;5089054;28;19920;-53
2021/05/04 01:16:49;;;;;;;;;;;22.10;65.10;;;;;;5086293;28;19912;-53
2021/05/04 01:19:16;;;;;;;;;;;22.10;65.20;;;;;;5091840;28;19920;-54
2021/05/04 01:21:42;;;;;;;;;;;22.10;65.30;;;;;;5073097;28;19908;-52
2021/05/04 01:24:08;;;;;;;;;;;22.20;65.30;;;;;;5092457;28;19908;-53
2021/05/04 01:26:34;;;;;;;;;;;22.10;65.20;;;;;;5084100;28;19905;-51
2021/05/04 01:29:00;;;;;;;;;;;22.10;65.20;;;;;;5071336;28;19908;-55
2021/05/04 01:31:26;;;;;;;;;;;22.10;65.30;;;;;;5089835;28;19911;-53
2021/05/04 01:33:52;;;;;;;;;;;22.10;65.40;;;;;;5090280;28;19966;-53
2021/05/04 01:36:18;;;;;;;;;;;22.10;65.30;;;;;;5089281;28;19919;-51
2021/05/04 01:38:43;;;;;;;;;;;22.10;65.40;;;;;;5087480;28;19924;-52
2021/05/04 01:41:09;;;;;;;;;;;22.10;65.30;;;;;;5091538;28;19987;-53
2021/05/04 01:43:35;;;;;;;;;;;22.10;65.30;;;;;;5082349;28;19913;-53
2021/05/04 01:46:01;;;;;;;;;;;22.10;65.20;;;;;;5093137;28;20359;-53
2021/05/04 01:48:27;;;;;;;;;;;22.10;65.20;;;;;;5093351;28;19950;-53
2021/05/04 01:50:53;;;;;;;;;;;22.10;65.30;;;;;;5093084;28;19919;-52
2021/05/04 01:53:19;;;;;;;;;;;22.10;65.30;;;;;;5089096;28;20621;-54
2021/05/04 01:55:45;;;;;;;;;;;22.10;65.20;;;;;;5091515;28;19912;-53
2021/05/04 01:58:11;;;;;;;;;;;22.10;65.30;;;;;;5090586;28;19924;-54
2021/05/04 02:00:36;;;;;;;;;;;22.10;65.20;;;;;;5092832;28;19923;-54
2021/05/04 02:03:02;;;;;;;;;;;22.10;65.20;;;;;;5093914;28;19908;-55
2021/05/04 02:05:28;;;;;;;;;;;22.10;65.20;;;;;;5086179;28;19908;-54
2021/05/04 02:07:54;;;;;;;;;;;22.10;65.30;;;;;;5069049;28;19908;-53
2021/05/04 02:10:20;;;;;;;;;;;22.10;65.30;;;;;;5092856;28;19951;-52
2021/05/04 02:12:46;;;;;;;;;;;22.10;65.20;;;;;;5100557;28;19904;-52
2021/05/04 02:15:13;;;;;;;;;;;22.10;65.10;;;;;;5101371;28;19966;-54
2021/05/04 02:17:39;;;;;;;;;;;22.10;65.30;;;;;;5100905;28;19915;-54
2021/05/04 02:20:05;;;;;;;;;;;22.10;65.90;;;;;;5101710;28;19916;-51
2021/05/04 02:22:32;;;;;;;;;;;22.00;65.30;;;;;;5101374;28;20557;-52
2021/05/04 02:24:59;;;;;;;;;;;22.10;65.30;;;;;;5083803;28;19954;-52
2021/05/04 02:27:24;;;;;;;;;;;22.10;65.40;;;;;;5101157;28;19919;-52
2021/05/04 02:29:50;;;;;;;;;;;22.00;65.20;;;;;;5100699;28;20269;-53
2021/05/04 02:32:16;;;;;;;;;;;22.00;65.20;;;;;;5100895;28;19908;-52
2021/05/04 02:34:42;;;;;;;;;;;22.00;65.10;;;;;;5101577;28;19908;-49
2021/05/04 02:37:08;;;;;;;;;;;22.10;65.20;;;;;;5101307;28;19969;-52
2021/05/04 02:39:34;;;;;;;;;;;22.00;65.20;;;;;;5100790;28;19912;-53
2021/05/04 02:42:00;;;;;;;;;;;22.00;65.20;;;;;;5100931;28;19974;-54
2021/05/04 02:44:26;;;;;;;;;;;22.00;65.20;;;;;;5101151;28;19908;-53
2021/05/04 02:46:51;;;;;;;;;;;22.00;65.10;;;;;;5101367;28;20026;-52
2021/05/04 02:49:17;;;;;;;;;;;22.00;65.20;;;;;;5086070;28;19938;-52
2021/05/04 02:51:44;;;;;;;;;;;22.00;65.10;;;;;;5104983;28;19908;-54
2021/05/04 02:54:10;;;;;;;;;;;22.00;65.10;;;;;;5104861;28;19912;-51
2021/05/04 02:56:36;;;;;;;;;;;22.00;65.20;;;;;;5104436;28;19912;-53
2021/05/04 02:59:02;;;;;;;;;;;22.00;65.20;;;;;;5104598;28;19945;-55
2021/05/04 03:01:28;;;;;;;;;;;22.00;65.20;;;;;;5104510;28;19930;-53
2021/05/04 03:03:54;;;;;;;;;;;22.00;65.20;;;;;;5104099;28;19904;-51
2021/05/04 03:06:20;;;;;;;;;;;22.00;65.20;;;;;;5104920;28;19930;-53
2021/05/04 03:08:46;;;;;;;;;;;22.00;65.20;;;;;;5103992;28;19979;-54
2021/05/04 03:11:12;;;;;;;;;;;22.00;65.10;;;;;;5104225;28;19970;-53
2021/05/04 03:13:37;;;;;;;;;;;22.00;65.10;;;;;;5103518;28;19918;-52
2021/05/04 03:16:03;;;;;;;;;;;22.00;65.10;;;;;;5104637;28;19971;-54
2021/05/04 03:18:29;;;;;;;;;;;22.00;65.10;;;;;;5104106;28;20482;-51
2021/05/04 03:20:55;;;;;;;;;;;21.90;65.20;;;;;;5104708;28;19912;-51
2021/05/04 03:23:21;;;;;;;;;;;21.90;65.10;;;;;;5103283;28;20577;-52
2021/05/04 03:25:47;;;;;;;;;;;21.90;65.10;;;;;;5104089;28;19904;-52
2021/05/04 03:28:13;;;;;;;;;;;21.90;65.00;;;;;;5103913;28;20015;-54
2021/05/04 03:30:39;;;;;;;;;;;21.90;65.10;;;;;;5085723;28;19908;-52
2021/05/04 03:33:05;;;;;;;;;;;21.90;65.00;;;;;;5103302;28;19919;-52
2021/05/04 03:35:31;;;;;;;;;;;21.90;65.10;;;;;;5104511;28;19930;-52
2021/05/04 03:37:57;;;;;;;;;;;21.90;65.00;;;;;;5099629;28;19908;-53
2021/05/04 03:40:23;;;;;;;;;;;21.90;65.00;;;;;;5103862;28;19912;-52
2021/05/04 03:42:49;;;;;;;;;;;21.90;65.00;;;;;;5102612;28;19915;-53
2021/05/04 03:45:15;;;;;;;;;;;21.90;65.10;;;;;;5104085;28;19919;-52
2021/05/04 03:47:41;;;;;;;;;;;21.90;65.00;;;;;;5103558;28;19904;-53
2021/05/04 03:50:08;;;;;;;;;;;21.90;65.00;;;;;;5103073;28;19904;-52
2021/05/04 03:52:34;;;;;;;;;;;21.90;65.00;;;;;;5103078;28;20519;-54
2021/05/04 03:55:00;;;;;;;;;;;21.90;65.00;;;;;;5103842;28;19908;-53
2021/05/04 03:57:26;;;;;;;;;;;21.90;65.00;;;;;;5103295;28;19914;-52
2021/05/04 03:59:52;;;;;;;;;;;21.90;65.10;;;;;;5102286;28;19916;-51
2021/05/04 04:02:18;;;;;;;;;;;21.90;65.00;;;;;;5103476;28;19927;-53
2021/05/04 04:04:44;;;;;;;;;;;21.90;65.00;;;;;;5103823;28;19905;-53
2021/05/04 04:07:10;;;;;;;;;;;21.90;65.00;;;;;;5103512;28;19908;-54
2021/05/04 04:09:35;;;;;;;;;;;21.90;65.00;;;;;;5103100;28;19907;-52
2021/05/04 04:12:01;;;;;;;;;;;21.80;64.90;;;;;;5102991;28;19920;-53
2021/05/04 04:14:27;;;;;;;;;;;21.80;65.00;;;;;;5103209;28;19904;-52
2021/05/04 04:16:53;;;;;;;;;;;21.80;64.90;;;;;;5103086;28;19904;-55
2021/05/04 04:19:19;;;;;;;;;;;21.80;65.00;;;;;;5102629;28;19916;-54
2021/05/04 04:21:45;;;;;;;;;;;21.80;64.90;;;;;;5103056;28;19915;-51
2021/05/04 04:24:11;;;;;;;;;;;21.80;65.00;;;;;;5102927;28;19926;-53
2021/05/04 04:26:37;;;;;;;;;;;21.80;64.90;;;;;;5102548;28;19908;-52
2021/05/04 04:29:03;;;;;;;;;;;21.80;64.90;;;;;;5102830;28;19936;-52
2021/05/04 04:31:29;;;;;;;;;;;21.80;64.90;;;;;;5084491;28;20327;-52
2021/05/04 04:33:55;;;;;;;;;;;21.80;65.00;;;;;;5102759;28;19971;-51
2021/05/04 04:36:21;;;;;;;;;;;21.80;64.90;;;;;;5102944;28;19904;-54
2021/05/04 04:38:46;;;;;;;;;;;21.80;64.90;;;;;;5102546;28;19985;-52
2021/05/04 04:41:12;;;;;;;;;;;21.80;64.90;;;;;;5102403;28;19908;-52
2021/05/04 04:43:38;;;;;;;;;;;21.80;64.90;;;;;;5102063;28;20364;-52
2021/05/04 04:46:04;;;;;;;;;;;21.80;64.90;;;;;;5102950;28;19908;-50
2021/05/04 04:48:30;;;;;;;;;;;21.80;64.90;;;;;;5102117;28;19914;-53
2021/05/04 04:50:56;;;;;;;;;;;21.80;65.00;;;;;;5102681;28;19903;-55
2021/05/04 04:53:22;;;;;;;;;;;21.80;64.90;;;;;;5102042;28;20638;-52
2021/05/04 04:55:48;;;;;;;;;;;21.70;64.80;;;;;;5102369;28;19911;-53
2021/05/04 04:58:13;;;;;;;;;;;21.70;64.80;;;;;;5101911;28;19916;-54
2021/05/04 05:00:39;;;;;;;;;;;21.70;64.90;;;;;;5106256;28;19934;-51
2021/05/04 05:03:05;;;;;;;;;;;21.70;64.80;;;;;;5102407;28;19908;-52
2021/05/04 05:05:31;;;;;;;;;;;21.70;64.80;;;;;;5101997;28;19915;-54
2021/05/04 05:07:57;;;;;;;;;;;21.70;64.80;;;;;;5102004;28;19929;-52
2021/05/04 05:10:23;;;;;;;;;;;21.70;64.90;;;;;;5083022;28;19950;-52
2021/05/04 05:12:49;;;;;;;;;;;21.70;64.80;;;;;;5093048;28;19909;-53
2021/05/04 05:15:15;;;;;;;;;;;21.70;64.80;;;;;;5090135;28;19904;-53
2021/05/04 05:17:41;;;;;;;;;;;21.70;64.90;;;;;;5091647;28;19973;-54
2021/05/04 05:20:07;;;;;;;;;;;21.70;64.90;;;;;;5092796;28;19947;-53
2021/05/04 05:22:33;;;;;;;;;;;21.70;64.90;;;;;;5092264;28;19908;-52
2021/05/04 05:24:59;;;;;;;;;;;21.70;65.40;;;;;;5082342;28;19909;-52
2021/05/04 05:27:25;;;;;;;;;;;21.70;64.90;;;;;;5092689;28;19919;-53
2021/05/04 05:29:51;;;;;;;;;;;21.70;64.90;;;;;;5092962;28;19979;-53
2021/05/04 05:32:17;;;;;;;;;;;21.70;64.90;;;;;;5069681;28;19943;-54
2021/05/04 05:34:43;;;;;;;;;;;21.70;64.90;;;;;;5090137;28;19975;-53
2021/05/04 05:37:09;;;;;;;;;;;21.70;64.90;;;;;;5090316;28;19908;-50
2021/05/04 05:39:42;;;;;;;;;;;21.70;64.90;;;;;;5089180;28;19927;-53
2021/05/04 05:42:09;;;;;;;;;;;21.70;64.90;;;;;;5089748;28;19908;-52
2021/05/04 05:44:35;;;;;;;;;;;21.70;64.90;;;;;;5085891;28;19931;-53
2021/05/04 05:47:00;;;;;;;;;;;21.60;64.90;;;;;;5092767;28;19908;-52
2021/05/04 05:49:26;;;;;;;;;;;21.70;64.90;;;;;;5096106;28;20455;-54
2021/05/04 05:51:52;;;;;;;;;;;21.70;64.90;;;;;;5091784;28;19950;-51
2021/05/04 05:54:18;;;;;;;;;;;21.70;65.00;;;;;;5095446;28;19908;-53
2021/05/04 05:56:44;;;;;;;;;;;21.60;64.90;;;;;;5090050;28;19910;-52
2021/05/04 05:59:10;;;;;;;;;;;21.60;64.90;;;;;;5093474;28;19916;-52
2021/05/04 06:01:36;;;;;;;;;;;21.60;65.60;;;;;;5093708;28;20567;-51
2021/05/04 06:04:02;;;;;;;;;;;21.60;65.00;;;;;;5095576;28;19908;-54
2021/05/04 06:06:28;;;;;;;;;;;21.60;64.90;;;;;;5091368;28;19908;-53
2021/05/04 06:08:53;;;;;;;;;;;21.60;64.90;;;;;;5085559;28;19950;-50
2021/05/04 06:11:19;;;;;;;;;;;21.60;65.00;;;;;;5098580;28;19919;-52
2021/05/04 06:13:45;;;;;;;;;;;21.60;64.90;;;;;;5101473;28;19919;-54
2021/05/04 06:16:11;;;;;;;;;;;21.60;64.90;;;;;;5101398;28;19931;-54
2021/05/04 06:18:37;;;;;;;;;;;21.60;65.00;;;;;;5100774;28;19912;-54
2021/05/04 06:21:03;;;;;;;;;;;21.60;65.00;;;;;;5101441;28;19912;-52
2021/05/04 06:23:29;;;;;;;;;;;21.60;65.00;;;;;;5104958;28;19904;-53
2021/05/04 06:25:55;;;;;;;;;;;21.60;65.00;;;;;;5105079;28;19975;-53
2021/05/04 06:28:21;;;;;;;;;;;21.60;65.00;;;;;;5107013;28;19907;-52
2021/05/04 06:30:47;;;;;;;;;;;21.60;65.00;;;;;;5105636;28;19990;-52
2021/05/04 06:33:13;;;;;;;;;;;21.60;65.00;;;;;;5104325;28;19977;-53
2021/05/04 06:35:41;;;;;;;;;;;21.60;65.00;;;;;;5105081;28;19938;-54
2021/05/04 06:38:07;;;;;;;;;;;21.60;65.00;;;;;;5104722;28;19912;-53
2021/05/04 06:40:33;;;;;;;;;;;21.60;65.00;;;;;;5086910;28;19977;-53
2021/05/04 06:43:00;;;;;;;;;;;21.50;65.00;;;;;;5104551;28;20357;-54
2021/05/04 06:45:26;;;;;;;;;;;21.50;65.00;;;;;;5104884;28;19911;-52
2021/05/04 06:47:52;;;;;;;;;;;21.50;65.00;;;;;;5104750;28;19907;-57
2021/05/04 06:50:18;;;;;;;;;;;21.50;65.00;;;;;;5104554;28;19965;-53
2021/05/04 06:52:44;;;;;;;;;;;21.50;65.00;;;;;;5104325;28;19904;-53
2021/05/04 06:55:10;;;;;;;;;;;21.50;65.00;;;;;;5104578;28;19908;-55
2021/05/04 06:57:36;;;;;;;;;;;21.50;65.00;;;;;;5104697;28;19904;-55
2021/05/04 07:00:03;;;;;;;;;;;21.50;65.00;;;;;;5104609;28;19975;-52
2021/05/04 07:02:29;;;;;;;;;;;21.50;65.00;;;;;;5104181;28;19926;-55
2021/05/04 07:04:55;;;;;;;;;;;21.50;65.10;;;;;;5104455;28;19912;-52
2021/05/04 07:07:21;;;;;;;;;;;21.50;65.00;;;;;;5104478;28;19934;-53
2021/05/04 07:09:47;;;;;;;;;;;21.50;65.10;;;;;;5104206;28;19912;-54
2021/05/04 07:12:13;;;;;;;;;;;21.50;65.10;;;;;;5103939;28;19916;-53
2021/05/04 07:14:39;;;;;;;;;;;21.50;65.00;;;;;;5104237;28;19990;-51
2021/05/04 07:17:05;;;;;;;;;;;21.40;65.00;;;;;;5104546;28;19908;-52
2021/05/04 07:19:31;;;;;;;;;;;21.50;65.10;;;;;;5104374;28;19963;-55
2021/05/04 07:21:57;;;;;;;;;;;21.50;65.10;;;;;;5104400;28;21520;-55
2021/05/04 07:24:23;;;;;;;;;;;21.40;65.70;;;;;;5103948;28;19932;-54
2021/05/04 07:26:49;;;;;;;;;;;21.40;65.10;;;;;;5103722;28;19920;-54
2021/05/04 07:29:15;;;;;;;;;;;21.40;65.00;;;;;;5103924;28;19912;-54
2021/05/04 07:31:42;;;;;;;;;;;21.40;65.00;;;;;;5104295;28;19904;-51
2021/05/04 07:34:09;;;;;;;;;;;21.40;65.00;;;;;;5102466;28;19957;-53
2021/05/04 07:36:35;;;;;;;;;;;21.40;65.00;;;;;;5104086;28;19962;-52
2021/05/04 07:39:01;;;;;;;;;;;21.40;65.00;;;;;;5103516;28;19911;-54
2021/05/04 07:41:27;;;;;;;;;;;21.40;65.00;;;;;;5103755;28;19908;-52
2021/05/04 07:43:53;;;;;;;;;;;21.40;65.10;;;;;;5103393;28;19904;-55
2021/05/04 07:46:19;;;;;;;;;;;21.30;65.00;;;;;;5104117;28;19907;-52
2021/05/04 07:48:45;;;;;;;;;;;21.30;65.00;;;;;;5104224;28;19908;-52
2021/05/04 07:51:11;;;;;;;;;;;21.40;65.10;;;;;;5103488;28;20514;-54
2021/05/04 07:53:37;;;;;;;;;;;21.30;65.00;;;;;;5102883;28;20031;-53
2021/05/04 07:56:03;;;;;;;;;;;21.30;65.00;;;;;;5103955;28;19955;-52
2021/05/04 07:58:30;;;;;;;;;;;21.30;65.00;;;;;;5103355;28;19969;-53
2021/05/04 08:00:56;;;;;;;;;;;21.30;65.00;;;;;;5103738;28;20003;-53
2021/05/04 08:03:21;;;;;;;;;;;21.30;65.00;;;;;;5103293;28;19947;-55
2021/05/04 08:05:47;;;;;;;;;;;21.30;65.00;;;;;;5103508;28;20039;-53
2021/05/04 08:08:13;;;;;;;;;;;21.30;65.00;;;;;;5103421;28;19918;-55
2021/05/04 08:10:40;;;;;;;;;;;21.30;65.00;;;;;;5103603;28;19916;-53
2021/05/04 08:13:06;;;;;;;;;;;21.30;65.00;;;;;;5103279;28;19912;-54
2021/05/04 08:15:32;;;;;;;;;;;21.20;65.00;;;;;;5103459;28;19908;-51
2021/05/04 08:18:03;;;;;;;;;;;21.20;65.00;;;;;;5103261;28;19915;-56
2021/05/04 08:20:32;;;;;;;;;;;21.30;65.10;;;;;;5103028;28;19930;-51
2021/05/04 08:22:58;;;;;;;;;;;21.20;64.90;;;;;;5102694;28;19992;-53
2021/05/04 08:25:25;;;;;;;;;;;21.20;65.00;;;;;;5103147;28;19912;-54
2021/05/04 08:27:51;;;;;;;;;;;21.20;65.00;;;;;;5102961;28;19908;-54
2021/05/04 08:30:17;;;;;;;;;;;21.20;65.00;;;;;;5102490;28;19908;-55
2021/05/04 08:32:43;;;;;;;;;;;21.20;65.00;;;;;;5102384;28;19930;-53
2021/05/04 08:35:09;;;;;;;;;;;21.20;65.00;;;;;;5102779;28;19967;-50
2021/05/04 08:37:35;;;;;;;;;;;21.20;65.00;;;;;;5103062;28;19908;-54
2021/05/04 08:40:00;;;;;;;;;;;21.20;65.10;;;;;;5102687;28;20015;-52
2021/05/04 08:42:26;;;;;;;;;;;21.20;65.00;;;;;;5098228;28;19908;-52
2021/05/04 08:44:52;;;;;;;;;;;21.10;65.00;;;;;;5102416;28;19908;-55
2021/05/04 08:47:19;;;;;;;;;;;21.10;65.10;;;;;;5102795;28;19958;-54
2021/05/04 08:49:45;;;;;;;;;;;21.10;65.10;;;;;;5102288;28;20266;-52
2021/05/04 08:52:11;;;;;;;;;;;21.10;65.10;;;;;;5084341;28;19908;-52
2021/05/04 08:54:37;;;;;;;;;;;21.10;65.10;;;;;;5102393;28;19907;-52
2021/05/04 08:57:03;;;;;;;;;;;21.10;65.10;;;;;;5102618;28;19907;-53
2021/05/04 08:59:29;;;;;;;;;;;21.10;65.10;;;;;;5102528;28;19915;-53
2021/05/04 09:01:55;;;;;;;;;;;21.10;65.10;;;;;;5102817;28;19908;-52
2021/05/04 09:04:30;;;;;;;;;;;21.10;65.10;;;;;;5102225;28;19904;-50
2021/05/04 09:06:57;;;;;;;;;;;21.10;65.10;;;;;;5102278;28;19919;-50
2021/05/04 09:09:31;;;;;;;;;;;21.10;65.10;;;;;;5102179;28;19908;-52
2021/05/04 09:12:15;;;;;;;;;;;21.10;65.10;;;;;;5101994;28;19920;-52
2021/05/04 09:14:55;;;;;;;;;;;21.00;65.00;;;;;;5105954;28;19904;-52
2021/05/04 09:17:34;;;;;;;;;;;21.10;65.20;;;;;;5102273;28;19927;-52
2021/05/04 09:22:43;;;;;;;;;;;21.00;65.00;;;;;;5099179;28;19908;-51
2021/05/04 09:25:27;;;;;;;;;;;21.00;65.00;;;;;;5097952;28;19927;-49
2021/05/04 09:28:03;;;;;;;;;;;21.00;65.10;;;;;;5099855;28;19923;-55
2021/05/04 09:30:29;;;;;;;;;;;21.00;65.10;;;;;;5102039;28;19915;-51
2021/05/04 09:32:55;;;;;;;;;;;21.00;65.10;;;;;;5101686;28;19912;-53
2021/05/04 09:35:30;;;;;;;;;;;21.00;65.00;;;;;;5101930;28;19915;-55
2021/05/04 09:38:03;;;;;;;;;;;21.00;65.10;;;;;;5101774;28;19904;-52
2021/05/04 09:40:29;;;;;;;;;;;21.00;65.10;;;;;;5102081;28;19915;-54
2021/05/04 09:43:01;;;;;;;;;;;21.00;65.10;;;;;;5101219;28;19904;-55
2021/05/04 09:45:27;;;;;;;;;;;20.90;65.10;;;;;;5101803;28;19935;-53
2021/05/04 09:48:09;;;;;;;;;;;21.00;65.20;;;;;;5101956;28;19911;-55
2021/05/04 09:50:45;;;;;;;;;;;21.00;65.20;;;;;;5101887;28;19907;-53
2021/05/04 09:53:12;;;;;;;;;;;20.90;65.20;;;;;;5102049;28;19939;-54
2021/05/04 09:55:51;;;;;;;;;;;20.90;65.20;;;;;;5101504;28;19908;-53
2021/05/04 09:58:17;;;;;;;;;;;20.90;65.30;;;;;;5109291;28;19934;-49
2021/05/04 10:00:43;;;;;;;;;;;20.90;65.20;;;;;;5087586;28;19979;-54
2021/05/04 10:03:09;;;;;;;;;;;20.90;65.20;;;;;;5105691;28;19903;-52
2021/05/04 10:05:35;;;;;;;;;;;20.90;65.20;;;;;;5087662;28;19908;-54
2021/05/04 10:08:00;;;;;;;;;;;20.90;65.20;;;;;;5105798;28;19908;-54
2021/05/04 10:10:26;;;;;;;;;;;20.90;65.20;;;;;;5105534;28;19920;-51
2021/05/04 10:12:52;;;;;;;;;;;20.90;65.20;;;;;;5086914;28;19915;-54
2021/05/04 10:15:18;;;;;;;;;;;20.90;66.00;;;;;;5105497;28;19908;-53
2021/05/04 10:17:44;;;;;;;;;;;20.90;65.20;;;;;;5105774;28;20341;-50
2021/05/04 10:20:13;;;;;;;;;;;20.90;65.20;;;;;;5108681;28;19920;-54
2021/05/04 10:22:39;;;;;;;;;;;20.80;65.10;;;;;;5105044;28;19904;-48
2021/05/04 10:25:05;;;;;;;;;;;20.80;65.10;;;;;;5105887;28;19915;-53
2021/05/04 10:27:32;;;;;;;;;;;20.80;65.10;;;;;;5105752;28;19908;-50
2021/05/04 10:30:00;;;;;;;;;;;20.80;65.20;;;;;;5082713;28;19930;-54
2021/05/04 10:32:44;;;;;;;;;;;20.80;65.10;;;;;;5105397;28;19926;-54
2021/05/04 10:35:28;;;;;;;;;;;20.80;65.20;;;;;;5103020;28;19954;-54
2021/05/04 10:37:58;;;;;;;;;;;20.80;65.20;;;;;;5105422;28;19908;-52
2021/05/04 10:40:29;;;;;;;;;;;20.80;65.20;;;;;;5105148;28;19919;-53
2021/05/04 10:42:55;;;;;;;;;;;20.80;65.30;;;;;;5104932;28;19911;-53
2021/05/04 10:45:21;;;;;;;;;;;20.80;65.30;;;;;;5105685;28;19908;-53
2021/05/04 10:47:49;;;;;;;;;;;20.80;65.30;;;;;;5086473;28;20644;-53
2021/05/04 10:50:16;;;;;;;;;;;20.70;65.20;;;;;;5104697;28;20388;-54
2021/05/04 10:52:51;;;;;;;;;;;20.80;65.30;;;;;;5104938;28;19904;-54
2021/05/04 10:55:18;;;;;;;;;;;20.80;65.30;;;;;;5104778;28;19911;-49
2021/05/04 10:57:58;;;;;;;;;;;20.70;65.20;;;;;;5104747;28;19908;-54
2021/05/04 11:00:43;;;;;;;;;;;20.70;65.20;;;;;;5104384;28;19927;-52
2021/05/04 11:03:27;;;;;;;;;;;20.70;65.20;;;;;;5104420;28;19908;-50
2021/05/04 11:05:53;;;;;;;;;;;20.70;65.40;;;;;;5107024;28;19967;-54
2021/05/04 11:08:19;;;;;;;;;;;20.70;65.30;;;;;;5102585;28;19931;-54
2021/05/04 11:11:04;;;;;;;;;;;20.70;65.40;;;;;;5095173;28;19920;-52
2021/05/04 11:13:48;;;;;;;;;;;20.70;65.30;;;;;;5084269;28;19912;-52
2021/05/04 11:16:35;;;;;;;;;;;20.70;65.30;;;;;;5080905;28;19904;-53
2021/05/04 11:19:02;;;;;;;;;;;20.70;65.30;;;;;;5083330;28;19920;-52
2021/05/04 11:21:47;;;;;;;;;;;20.70;65.30;;;;;;5084283;28;19930;-52
2021/05/04 11:24:13;;;;;;;;;;;20.70;65.30;;;;;;5084276;28;19908;-51
2021/05/04 11:26:43;;;;;;;;;;;20.70;65.30;;;;;;5084034;28;19919;-50
2021/05/04 11:29:10;;;;;;;;;;;20.70;65.30;;;;;;5083783;28;19908;-53
2021/05/04 11:31:39;;;;;;;;;;;20.60;65.30;;;;;;5083993;28;19934;-54
2021/05/04 11:34:23;;;;;;;;;;;20.70;65.40;;;;;;5083968;28;19909;-52
2021/05/04 11:36:49;;;;;;;;;;;20.70;65.40;;;;;;5080608;28;19911;-55
2021/05/04 11:39:15;;;;;;;;;;;20.60;65.30;;;;;;5084000;28;20248;-54
2021/05/04 11:41:41;;;;;;;;;;;20.60;65.30;;;;;;5083793;28;19908;-53
2021/05/04 11:44:07;;;;;;;;;;;20.70;65.40;;;;;;5084009;28;19915;-52
2021/05/04 11:46:35;;;;;;;;;;;20.60;65.30;;;;;;5083931;28;19908;-52
2021/05/04 11:49:01;;;;;;;;;;;20.60;65.30;;;;;;5084089;28;19909;-53
2021/05/04 11:51:26;;;;;;;;;;;20.60;65.30;;;;;;5083697;28;19962;-53
2021/05/04 11:53:53;;;;;;;;;;;20.60;65.30;;;;;;5065845;28;19911;-53
2021/05/04 11:56:18;;;;;;;;;;;20.60;65.30;;;;;;5065873;28;19944;-51
2021/05/04 11:58:44;;;;;;;;;;;20.60;65.30;;;;;;5083570;28;19915;-52
2021/05/04 12:01:11;;;;;;;;;;;20.60;65.40;;;;;;5065908;28;19909;-51
2021/05/04 12:03:37;;;;;;;;;;;20.60;65.40;;;;;;5083274;28;19915;-53
2021/05/04 12:06:03;;;;;;;;;;;20.60;65.40;;;;;;5064953;28;20472;-52
2021/05/04 12:08:29;;;;;;;;;;;20.60;66.10;;;;;;5083381;28;19905;-51
2021/05/04 12:10:55;;;;;;;;;;;20.60;65.40;;;;;;5093596;28;20500;-51
2021/05/04 12:13:22;;;;;;;;;;;20.60;65.40;;;;;;5103629;28;19929;-51
2021/05/04 12:15:49;;;;;;;;;;;20.60;65.40;;;;;;5103166;28;19907;-51
2021/05/04 12:18:17;;;;;;;;;;;20.60;65.40;;;;;;5103767;28;19915;-52
2021/05/04 12:20:43;;;;;;;;;;;20.60;65.40;;;;;;5102687;28;20480;-52
2021/05/04 12:23:09;;;;;;;;;;;20.60;65.30;;;;;;5103416;28;19916;-51
2021/05/04 12:25:57;;;;;;;;;;;20.60;65.40;;;;;;5103262;28;19930;-52
2021/05/04 12:28:25;;;;;;;;;;;20.60;65.30;;;;;;5102320;28;19904;-52
2021/05/04 12:30:54;;;;;;;;;;;20.60;65.30;;;;;;5103774;28;19907;-52
2021/05/04 12:33:20;;;;;;;;;;;20.50;65.30;;;;;;5102805;28;19915;-52
2021/05/04 12:35:53;;;;;;;;;;;20.60;65.30;;;;;;5084484;28;19912;-53
2021/05/04 12:38:23;;;;;;;;;;;20.60;65.30;;;;;;5102857;28;19908;-54
2021/05/04 12:41:04;;;;;;;;;;;20.60;65.40;;;;;;5102738;28;19975;-54
2021/05/04 12:43:32;;;;;;;;;;;20.50;65.30;;;;;;5102364;28;19908;-52
2021/05/04 12:46:05;;;;;;;;;;;20.50;65.20;;;;;;5102790;28;19912;-53
2021/05/04 12:48:31;;;;;;;;;;;20.60;65.30;;;;;;5102738;28;19908;-53
2021/05/04 12:50:57;;;;;;;;;;;20.50;65.30;;;;;;5102668;28;19988;-52
2021/05/04 12:53:37;;;;;;;;;;;20.50;65.30;;;;;;5102757;28;19904;-54
2021/05/04 12:56:23;;;;;;;;;;;20.50;65.30;;;;;;5102866;28;19907;-51
2021/05/04 12:58:53;;;;;;;;;;;20.50;65.20;;;;;;5098885;28;19934;-51
2021/05/04 13:01:18;;;;;;;;;;;20.50;65.30;;;;;;5103158;28;19951;-51
2021/05/04 13:03:49;;;;;;;;;;;20.50;65.30;;;;;;5084626;28;20327;-49
2021/05/04 13:06:31;;;;;;;;;;;20.50;65.30;;;;;;5098796;28;20014;-51
2021/05/04 13:09:14;;;;;;;;;;;20.50;65.20;;;;;;5102381;28;19908;-49
2021/05/04 13:15:02;;;;;;;;;;;20.50;65.20;;;;;;5101935;28;19915;-48
2021/05/04 13:30:50;;;;;;;;;;;20.60;65.20;;;;;;5101748;28;19912;-48
2021/05/04 13:33:16;;;;;;;;;;;20.60;65.20;;;;;;5102150;28;19912;-49
2021/05/04 13:36:25;;;;;;;;;;;20.60;65.20;;;;;;5102218;28;19915;-50
2021/05/04 13:39:02;;;;;;;;;;;20.60;65.20;;;;;;5093274;28;19987;-49
2021/05/04 13:49:41;;;;;;;;;;;20.60;65.10;;;;;;5085038;28;19915;-52
2021/05/04 13:52:07;;;;;;;;;;;20.60;65.10;;;;;;5101983;28;19908;-50
2021/05/04 13:54:34;;;;;;;;;;;20.60;65.10;;;;;;5101467;28;19908;-54
2021/05/04 13:57:00;;;;;;;;;;;20.60;65.20;;;;;;5102039;28;19931;-53
2021/05/04 13:59:26;;;;;;;;;;;20.60;65.30;;;;;;5101338;28;19927;-50
2021/05/04 14:02:01;;;;;;;;;;;20.60;65.30;;;;;;5101846;28;19908;-52
2021/05/04 14:26:42;;;;;;;;;;;20.70;65.60;;;;;;5039112;28;19967;-53
2021/05/04 14:29:08;;;;;;;;;;;20.70;65.70;;;;;;5023163;28;19952;-53
2021/05/04 14:31:34;;;;;;;;;;;20.70;65.60;;;;;;5022275;28;19948;-52
2021/05/04 14:34:00;;;;;;;;;;;20.70;65.60;;;;;;5022074;28;19912;-52
2021/05/04 14:42:01;;;;;;;;;;;20.70;65.60;;;;;;5034163;28;19932;-52
2021/05/04 14:44:43;;;;;;;;;;;20.70;65.60;;;;;;5028157;28;19912;-48
2021/05/04 14:55:43;;;;;;;;;;;20.70;65.50;;;;;;5101780;28;19923;-53
2021/05/04 14:58:33;;;;;;;;;;;20.70;65.50;;;;;;5104827;28;19915;-53
2021/05/04 15:01:04;;;;;;;;;;;20.80;65.60;;;;;;5105009;28;20052;-50
2021/05/04 15:03:31;;;;;;;;;;;20.80;65.60;;;;;;5099953;28;19911;-52
2021/05/04 15:05:58;;;;;;;;;;;20.80;65.70;;;;;;5105007;28;19966;-49
2021/05/04 15:08:24;;;;;;;;;;;20.80;65.70;;;;;;5104832;28;20124;-48
2021/05/04 15:10:50;;;;;;;;;;;20.80;65.70;;;;;;5103886;28;19916;-51
2021/05/04 15:13:18;;;;;;;;;;;20.80;65.70;;;;;;5095806;28;19912;-52
2021/05/04 15:23:54;;;;;;;;;;;20.80;65.90;;;;;;5081192;28;19983;-48
2021/05/04 15:26:19;;;;;;;;;;;20.80;66.00;;;;;;5096639;28;19908;-53
2021/05/04 15:28:45;;;;;;;;;;;20.90;66.10;;;;;;5093936;28;20617;-52
2021/05/04 15:31:11;;;;;;;;;;;20.90;66.10;;;;;;5090809;28;19912;-50